Hauptseite
METAR-TAF:

METAR-TAF

Flughäfen :

South Jersey Regional Airport

Mount Holly, New Jersey, Vereinigte Staaten

Breite: 39-56-26N, Länge: 074-50-28W, Höhe: 16 m

Beobachtung

Neuester Wetterbericht von vor 15 Minuten, um 20:54 UTC
Wind 11 kt aus Nord/Nordwest, Böen bis zu 21 kt
Temperatur 13°C
Luftfeuchtigkeit 51%
Luftdruck 1007 hPa
Sichtweite: 16.1 km
Geschlossene Wolkendecke in der Höhe von 4300 ft

METAR: KVAY 032054Z AUTO 34011G21KT 10SM OVC043 13/03 A2974 RMK AO2 SLP069 T01280033 53012

Zeit: 17:09 (21:09 UTC)


TAF: fehlend

Wetterbeobachtungen und Prognosen von mehr als 4000 Flughäfen (METAR und TAF Bericht).

Die verfügbaren Stationen werden durch gelbe und rote Markierungen auf der Karte dargestellt.

Führen Sie die Maus auf sie, um den Namen der Station zu sehen.

Darauf klicken, um die Beobachtung von Wetterbeobachtungen und Prognosen zu sehen.

Um die Karte zu ändern : klicken Sie auf den grünen Tasten mit einem schwarzen Kreuz Zum Vergrößern, auf den grünen Button mit einem Gedankenstrich zu verkleinern, oder auf die grünen Pfeile für benachbarte Karten.


METAR-TAF: